sensor_id;sensor_type;location;lat;lon;timestamp;pressure;altitude;pressure_sealevel;temperature;humidity
18201;BME280;9226;47.858;9.594;2022-09-19T00:03:37;95166.91;;;12.66;63.20
18201;BME280;9226;47.858;9.594;2022-09-19T00:06:03;95169.22;;;12.41;64.31
18201;BME280;9226;47.858;9.594;2022-09-19T00:08:29;95174.94;;;12.46;63.82
18201;BME280;9226;47.858;9.594;2022-09-19T00:10:55;95170.00;;;12.52;63.31
18201;BME280;9226;47.858;9.594;2022-09-19T00:13:21;95175.09;;;12.35;64.69
18201;BME280;9226;47.858;9.594;2022-09-19T00:15:48;95171.00;;;12.41;64.89
18201;BME280;9226;47.858;9.594;2022-09-19T00:18:15;95172.00;;;12.40;64.77
18201;BME280;9226;47.858;9.594;2022-09-19T00:20:41;95182.06;;;12.46;64.44
18201;BME280;9226;47.858;9.594;2022-09-19T00:23:09;95188.81;;;12.40;64.40
18201;BME280;9226;47.858;9.594;2022-09-19T00:26:04;95188.41;;;12.35;65.03
18201;BME280;9226;47.858;9.594;2022-09-19T00:28:30;95184.16;;;12.42;64.32
18201;BME280;9226;47.858;9.594;2022-09-19T00:30:56;95190.91;;;12.46;64.13
18201;BME280;9226;47.858;9.594;2022-09-19T00:33:23;95193.41;;;12.48;64.20
18201;BME280;9226;47.858;9.594;2022-09-19T00:35:53;95197.63;;;12.41;64.55
18201;BME280;9226;47.858;9.594;2022-09-19T00:38:24;95198.75;;;12.28;65.52
18201;BME280;9226;47.858;9.594;2022-09-19T00:40:50;95204.38;;;12.35;65.12
18201;BME280;9226;47.858;9.594;2022-09-19T00:43:17;95194.81;;;12.42;64.57
18201;BME280;9226;47.858;9.594;2022-09-19T00:45:44;95199.16;;;12.43;65.33
18201;BME280;9226;47.858;9.594;2022-09-19T00:48:12;95208.53;;;12.47;65.04
18201;BME280;9226;47.858;9.594;2022-09-19T00:50:39;95202.09;;;12.50;64.77
18201;BME280;9226;47.858;9.594;2022-09-19T00:53:11;95198.16;;;12.44;65.51
18201;BME280;9226;47.858;9.594;2022-09-19T00:55:38;95206.88;;;12.46;65.03
18201;BME280;9226;47.858;9.594;2022-09-19T01:00:37;95211.34;;;12.36;65.69
18201;BME280;9226;47.858;9.594;2022-09-19T01:03:04;95208.53;;;12.38;65.80
18201;BME280;9226;47.858;9.594;2022-09-19T01:11:44;95212.06;;;12.19;67.48
18201;BME280;9226;47.858;9.594;2022-09-19T01:16:48;95213.47;;;12.23;66.70
18201;BME280;9226;47.858;9.594;2022-09-19T01:27:21;95222.13;;;12.05;68.04
18201;BME280;9226;47.858;9.594;2022-09-19T01:29:56;95232.19;;;12.02;68.22
18201;BME280;9226;47.858;9.594;2022-09-19T01:32:31;95235.16;;;11.99;68.31
18201;BME280;9226;47.858;9.594;2022-09-19T01:35:02;95224.22;;;12.02;68.24
18201;BME280;9226;47.858;9.594;2022-09-19T01:38:00;95228.56;;;11.93;69.49
18201;BME280;9226;47.858;9.594;2022-09-19T01:40:29;95237.59;;;11.90;68.85
18201;BME280;9226;47.858;9.594;2022-09-19T01:42:55;95241.28;;;11.89;69.64
18201;BME280;9226;47.858;9.594;2022-09-19T01:45:28;95243.78;;;11.91;69.26
18201;BME280;9226;47.858;9.594;2022-09-19T02:03:51;95251.16;;;11.68;70.14
18201;BME280;9226;47.858;9.594;2022-09-19T02:06:31;95238.97;;;11.65;70.76
18201;BME280;9226;47.858;9.594;2022-09-19T02:09:09;95246.38;;;11.71;69.85
18201;BME280;9226;47.858;9.594;2022-09-19T02:11:40;95248.75;;;11.65;70.23
18201;BME280;9226;47.858;9.594;2022-09-19T02:14:11;95254.91;;;11.65;70.72
18201;BME280;9226;47.858;9.594;2022-09-19T02:16:45;95255.38;;;11.70;69.82
18201;BME280;9226;47.858;9.594;2022-09-19T02:19:45;95254.38;;;11.71;70.38
18201;BME280;9226;47.858;9.594;2022-09-19T02:22:21;95248.91;;;11.73;70.85
18201;BME280;9226;47.858;9.594;2022-09-19T02:24:49;95260.09;;;11.67;71.03
18201;BME280;9226;47.858;9.594;2022-09-19T02:27:21;95252.72;;;11.70;70.32
18201;BME280;9226;47.858;9.594;2022-09-19T02:29:52;95257.69;;;11.64;71.11
18201;BME280;9226;47.858;9.594;2022-09-19T02:32:19;95259.25;;;11.66;70.43
18201;BME280;9226;47.858;9.594;2022-09-19T02:34:47;95259.53;;;11.63;70.77
18201;BME280;9226;47.858;9.594;2022-09-19T02:37:30;95260.50;;;11.62;70.92
18201;BME280;9226;47.858;9.594;2022-09-19T02:39:59;95264.56;;;11.66;70.18
18201;BME280;9226;47.858;9.594;2022-09-19T02:42:36;95277.03;;;11.66;70.20
18201;BME280;9226;47.858;9.594;2022-09-19T02:50:27;95257.56;;;11.65;70.42
18201;BME280;9226;47.858;9.594;2022-09-19T02:52:56;95267.78;;;11.70;69.45
18201;BME280;9226;47.858;9.594;2022-09-19T02:55:30;95276.44;;;11.62;69.93
18201;BME280;9226;47.858;9.594;2022-09-19T02:57:59;95286.78;;;11.65;69.38
18201;BME280;9226;47.858;9.594;2022-09-19T03:00:28;95289.72;;;11.62;69.66
18201;BME280;9226;47.858;9.594;2022-09-19T03:03:12;95291.53;;;11.52;70.21
18201;BME280;9226;47.858;9.594;2022-09-19T03:05:58;95290.97;;;11.58;69.89
18201;BME280;9226;47.858;9.594;2022-09-19T03:08:26;95287.63;;;11.56;69.78
18201;BME280;9226;47.858;9.594;2022-09-19T03:10:57;95282.00;;;11.59;69.79
18201;BME280;9226;47.858;9.594;2022-09-19T03:13:24;95276.00;;;11.57;69.93
18201;BME280;9226;47.858;9.594;2022-09-19T03:15:54;95281.06;;;11.60;69.35
18201;BME280;9226;47.858;9.594;2022-09-19T03:18:23;95289.03;;;11.60;69.12
18201;BME280;9226;47.858;9.594;2022-09-19T03:20:58;95298.53;;;11.53;69.47
18201;BME280;9226;47.858;9.594;2022-09-19T03:23:34;95297.94;;;11.49;69.50
18201;BME280;9226;47.858;9.594;2022-09-19T03:26:03;95299.06;;;11.47;69.20
18201;BME280;9226;47.858;9.594;2022-09-19T03:28:29;95291.78;;;11.49;69.15
18201;BME280;9226;47.858;9.594;2022-09-19T03:30:55;95304.63;;;11.44;69.22
18201;BME280;9226;47.858;9.594;2022-09-19T03:33:25;95310.78;;;11.44;69.01
18201;BME280;9226;47.858;9.594;2022-09-19T03:35:51;95308.78;;;11.36;69.43
18201;BME280;9226;47.858;9.594;2022-09-19T03:38:18;95313.66;;;11.31;69.52
18201;BME280;9226;47.858;9.594;2022-09-19T03:40:45;95320.53;;;11.34;69.17
18201;BME280;9226;47.858;9.594;2022-09-19T03:43:10;95310.19;;;11.31;69.41
18201;BME280;9226;47.858;9.594;2022-09-19T03:45:36;95316.84;;;11.25;69.28
18201;BME280;9226;47.858;9.594;2022-09-19T03:48:01;95318.81;;;11.23;69.06
18201;BME280;9226;47.858;9.594;2022-09-19T03:50:27;95325.34;;;11.19;69.36
18201;BME280;9226;47.858;9.594;2022-09-19T03:52:53;95327.28;;;11.17;69.62
18201;BME280;9226;47.858;9.594;2022-09-19T03:55:18;95326.59;;;11.15;69.47
18201;BME280;9226;47.858;9.594;2022-09-19T03:57:44;95337.22;;;11.15;69.58
18201;BME280;9226;47.858;9.594;2022-09-19T04:00:10;95341.09;;;11.11;69.83
18201;BME280;9226;47.858;9.594;2022-09-19T04:02:35;95342.19;;;11.08;70.12
18201;BME280;9226;47.858;9.594;2022-09-19T04:05:01;95336.03;;;11.08;70.12
18201;BME280;9226;47.858;9.594;2022-09-19T04:07:27;95343.56;;;11.02;70.89
18201;BME280;9226;47.858;9.594;2022-09-19T04:09:53;95340.78;;;11.04;70.60
18201;BME280;9226;47.858;9.594;2022-09-19T04:12:22;95347.16;;;11.01;70.78
18201;BME280;9226;47.858;9.594;2022-09-19T04:14:48;95345.28;;;10.92;71.10
18201;BME280;9226;47.858;9.594;2022-09-19T04:17:14;95349.13;;;10.99;70.84
18201;BME280;9226;47.858;9.594;2022-09-19T04:19:41;95346.59;;;10.98;70.98
18201;BME280;9226;47.858;9.594;2022-09-19T04:22:09;95348.88;;;11.02;70.67
18201;BME280;9226;47.858;9.594;2022-09-19T04:24:34;95357.78;;;11.01;70.46
18201;BME280;9226;47.858;9.594;2022-09-19T04:27:03;95353.56;;;10.99;70.46
18201;BME280;9226;47.858;9.594;2022-09-19T04:29:32;95363.34;;;10.98;70.26
18201;BME280;9226;47.858;9.594;2022-09-19T04:31:58;95373.28;;;10.96;69.91
18201;BME280;9226;47.858;9.594;2022-09-19T04:34:27;95377.13;;;10.92;70.33
18201;BME280;9226;47.858;9.594;2022-09-19T04:36:53;95368.59;;;10.89;69.88
18201;BME280;9226;47.858;9.594;2022-09-19T04:39:19;95373.59;;;10.82;70.37
18201;BME280;9226;47.858;9.594;2022-09-19T04:41:44;95382.19;;;10.74;70.49
18201;BME280;9226;47.858;9.594;2022-09-19T04:44:10;95383.25;;;10.72;70.36
18201;BME280;9226;47.858;9.594;2022-09-19T04:46:36;95387.16;;;10.67;70.66
18201;BME280;9226;47.858;9.594;2022-09-19T04:49:06;95385.97;;;10.60;70.40
18201;BME280;9226;47.858;9.594;2022-09-19T04:51:32;95391.53;;;10.57;70.68
18201;BME280;9226;47.858;9.594;2022-09-19T04:53:58;95388.41;;;10.52;70.48
18201;BME280;9226;47.858;9.594;2022-09-19T04:56:25;95408.19;;;10.48;70.72
18201;BME280;9226;47.858;9.594;2022-09-19T04:58:51;95407.47;;;10.46;70.62
18201;BME280;9226;47.858;9.594;2022-09-19T05:01:17;95400.84;;;10.40;70.93
18201;BME280;9226;47.858;9.594;2022-09-19T05:03:42;95411.13;;;10.34;71.10
18201;BME280;9226;47.858;9.594;2022-09-19T05:06:12;95407.63;;;10.22;71.39
18201;BME280;9226;47.858;9.594;2022-09-19T05:08:37;95407.25;;;10.15;70.90
18201;BME280;9226;47.858;9.594;2022-09-19T05:11:05;95407.25;;;10.15;70.73
18201;BME280;9226;47.858;9.594;2022-09-19T05:13:32;95407.88;;;10.19;70.33
18201;BME280;9226;47.858;9.594;2022-09-19T05:15:59;95420.53;;;10.26;70.76
18201;BME280;9226;47.858;9.594;2022-09-19T05:18:28;95421.72;;;10.34;70.83
18201;BME280;9226;47.858;9.594;2022-09-19T05:20:54;95425.59;;;10.41;71.02
18201;BME280;9226;47.858;9.594;2022-09-19T05:23:24;95435.06;;;10.55;71.14
18201;BME280;9226;47.858;9.594;2022-09-19T05:25:51;95437.44;;;10.69;71.09
18201;BME280;9226;47.858;9.594;2022-09-19T05:28:21;95435.59;;;10.81;70.80
18201;BME280;9226;47.858;9.594;2022-09-19T05:30:49;95440.72;;;10.94;69.97
18201;BME280;9226;47.858;9.594;2022-09-19T05:33:19;95451.78;;;10.99;69.47
18201;BME280;9226;47.858;9.594;2022-09-19T05:35:50;95449.25;;;11.09;69.02
18201;BME280;9226;47.858;9.594;2022-09-19T05:38:16;95450.41;;;11.16;68.65
18201;BME280;9226;47.858;9.594;2022-09-19T05:40:42;95454.75;;;11.38;68.54
18201;BME280;9226;47.858;9.594;2022-09-19T05:43:07;95455.16;;;11.54;67.93
18201;BME280;9226;47.858;9.594;2022-09-19T05:45:33;95451.69;;;11.85;67.37
18201;BME280;9226;47.858;9.594;2022-09-19T05:48:03;95448.75;;;12.19;66.85
18201;BME280;9226;47.858;9.594;2022-09-19T05:50:29;95446.09;;;12.59;66.25
18201;BME280;9226;47.858;9.594;2022-09-19T05:52:55;95442.19;;;13.12;64.11
18201;BME280;9226;47.858;9.594;2022-09-19T05:55:39;95449.84;;;13.93;60.31
18201;BME280;9226;47.858;9.594;2022-09-19T05:58:06;95454.63;;;14.83;60.97
18201;BME280;9226;47.858;9.594;2022-09-19T06:00:32;95451.69;;;15.66;57.70
18201;BME280;9226;47.858;9.594;2022-09-19T06:02:59;95447.16;;;16.45;55.13
18201;BME280;9226;47.858;9.594;2022-09-19T06:05:30;95459.13;;;17.10;52.72
18201;BME280;9226;47.858;9.594;2022-09-19T06:07:59;95462.31;;;18.21;50.97
18201;BME280;9226;47.858;9.594;2022-09-19T06:10:26;95468.72;;;18.99;48.95
18201;BME280;9226;47.858;9.594;2022-09-19T06:12:53;95471.00;;;19.42;45.48
18201;BME280;9226;47.858;9.594;2022-09-19T06:15:19;95469.50;;;20.23;46.24
18201;BME280;9226;47.858;9.594;2022-09-19T06:17:44;95478.44;;;20.84;41.91
18201;BME280;9226;47.858;9.594;2022-09-19T06:20:13;95475.34;;;21.75;42.32
18201;BME280;9226;47.858;9.594;2022-09-19T06:22:40;95474.56;;;22.31;40.57
18201;BME280;9226;47.858;9.594;2022-09-19T06:25:06;95477.16;;;22.81;38.77
18201;BME280;9226;47.858;9.594;2022-09-19T06:27:32;95476.47;;;23.82;38.34
18201;BME280;9226;47.858;9.594;2022-09-19T06:29:57;95478.16;;;23.96;37.56
18201;BME280;9226;47.858;9.594;2022-09-19T06:32:24;95485.47;;;24.16;36.88
18201;BME280;9226;47.858;9.594;2022-09-19T06:34:49;95471.81;;;24.89;35.69
18201;BME280;9226;47.858;9.594;2022-09-19T06:37:15;95476.41;;;25.48;34.34
18201;BME280;9226;47.858;9.594;2022-09-19T06:39:40;95483.22;;;25.95;33.52
18201;BME280;9226;47.858;9.594;2022-09-19T06:42:06;95484.81;;;26.35;32.20
18201;BME280;9226;47.858;9.594;2022-09-19T06:44:31;95483.41;;;26.95;31.13
18201;BME280;9226;47.858;9.594;2022-09-19T06:46:56;95486.44;;;27.05;30.88
18201;BME280;9226;47.858;9.594;2022-09-19T06:49:23;95493.97;;;27.21;29.86
18201;BME280;9226;47.858;9.594;2022-09-19T06:51:49;95491.41;;;27.26;28.90
18201;BME280;9226;47.858;9.594;2022-09-19T06:54:15;95500.91;;;27.73;29.31
18201;BME280;9226;47.858;9.594;2022-09-19T06:56:41;95493.97;;;28.43;29.32
18201;BME280;9226;47.858;9.594;2022-09-19T06:59:07;95494.94;;;28.84;27.99
18201;BME280;9226;47.858;9.594;2022-09-19T07:01:33;95496.09;;;28.52;27.75
18201;BME280;9226;47.858;9.594;2022-09-19T07:03:58;95490.19;;;29.15;27.51
18201;BME280;9226;47.858;9.594;2022-09-19T07:06:23;95495.47;;;30.03;26.31
18201;BME280;9226;47.858;9.594;2022-09-19T07:08:49;95503.63;;;30.15;26.02
18201;BME280;9226;47.858;9.594;2022-09-19T07:11:14;95497.44;;;30.19;25.33
18201;BME280;9226;47.858;9.594;2022-09-19T07:13:40;95501.97;;;30.13;26.11
18201;BME280;9226;47.858;9.594;2022-09-19T07:16:05;95499.31;;;30.02;25.46
18201;BME280;9226;47.858;9.594;2022-09-19T07:18:32;95501.16;;;30.13;24.34
18201;BME280;9226;47.858;9.594;2022-09-19T07:21:00;95503.19;;;30.52;24.69
18201;BME280;9226;47.858;9.594;2022-09-19T07:23:26;95504.16;;;30.62;24.37
18201;BME280;9226;47.858;9.594;2022-09-19T07:25:53;95506.25;;;31.28;24.57
18201;BME280;9226;47.858;9.594;2022-09-19T07:28:20;95499.81;;;30.83;22.60
18201;BME280;9226;47.858;9.594;2022-09-19T07:30:46;95507.88;;;31.51;23.37
18201;BME280;9226;47.858;9.594;2022-09-19T07:33:15;95512.19;;;31.03;23.80
18201;BME280;9226;47.858;9.594;2022-09-19T07:35:41;95512.16;;;31.42;22.83
18201;BME280;9226;47.858;9.594;2022-09-19T07:38:10;95520.28;;;30.42;23.04
18201;BME280;9226;47.858;9.594;2022-09-19T07:40:37;95526.22;;;30.90;23.76
18201;BME280;9226;47.858;9.594;2022-09-19T07:43:03;95526.31;;;31.34;22.85
18201;BME280;9226;47.858;9.594;2022-09-19T07:45:32;95539.16;;;30.94;22.34
18201;BME280;9226;47.858;9.594;2022-09-19T07:47:58;95542.31;;;31.42;23.54
18201;BME280;9226;47.858;9.594;2022-09-19T07:50:24;95537.16;;;31.24;21.97
18201;BME280;9226;47.858;9.594;2022-09-19T07:55:25;95542.00;;;30.99;22.35
18201;BME280;9226;47.858;9.594;2022-09-19T07:57:56;95547.06;;;31.69;21.87
18201;BME280;9226;47.858;9.594;2022-09-19T08:00:23;95547.81;;;31.03;21.70
18201;BME280;9226;47.858;9.594;2022-09-19T08:03:01;95555.94;;;30.98;21.68
18201;BME280;9226;47.858;9.594;2022-09-19T08:05:31;95550.84;;;31.24;22.10
18201;BME280;9226;47.858;9.594;2022-09-19T08:07:58;95551.44;;;31.48;21.40
18201;BME280;9226;47.858;9.594;2022-09-19T08:10:23;95554.97;;;31.26;21.71
18201;BME280;9226;47.858;9.594;2022-09-19T08:12:49;95558.69;;;31.37;21.91
18201;BME280;9226;47.858;9.594;2022-09-19T08:15:17;95558.19;;;31.01;21.66
18201;BME280;9226;47.858;9.594;2022-09-19T08:20:26;95569.34;;;31.95;21.47
18201;BME280;9226;47.858;9.594;2022-09-19T08:22:59;95558.75;;;30.86;21.19
18201;BME280;9226;47.858;9.594;2022-09-19T08:25:27;95569.66;;;32.53;21.08
18201;BME280;9226;47.858;9.594;2022-09-19T08:27:53;95563.72;;;31.84;21.79
18201;BME280;9226;47.858;9.594;2022-09-19T08:30:21;95563.00;;;32.43;21.27
18201;BME280;9226;47.858;9.594;2022-09-19T08:32:48;95559.44;;;31.93;21.33
18201;BME280;9226;47.858;9.594;2022-09-19T08:35:18;95564.91;;;32.16;21.60
18201;BME280;9226;47.858;9.594;2022-09-19T08:37:44;95567.59;;;32.65;20.74
18201;BME280;9226;47.858;9.594;2022-09-19T08:40:20;95569.41;;;32.54;20.78
18201;BME280;9226;47.858;9.594;2022-09-19T08:48:25;95580.03;;;32.73;19.98
18201;BME280;9226;47.858;9.594;2022-09-19T08:51:03;95578.59;;;32.38;20.44
18201;BME280;9226;47.858;9.594;2022-09-19T08:53:32;95588.63;;;32.81;19.85
18201;BME280;9226;47.858;9.594;2022-09-19T08:55:58;95578.91;;;33.06;20.42
18201;BME280;9226;47.858;9.594;2022-09-19T08:58:28;95585.63;;;32.83;20.08
18201;BME280;9226;47.858;9.594;2022-09-19T09:00:55;95575.84;;;32.97;20.17
18201;BME280;9226;47.858;9.594;2022-09-19T09:03:29;95575.63;;;32.72;20.02
18201;BME280;9226;47.858;9.594;2022-09-19T09:11:44;95578.59;;;33.83;19.90
18201;BME280;9226;47.858;9.594;2022-09-19T09:14:52;95581.69;;;33.11;18.58
18201;BME280;9226;47.858;9.594;2022-09-19T09:18:00;95582.28;;;32.81;18.67
18201;BME280;9226;47.858;9.594;2022-09-19T09:23:18;95572.50;;;31.86;19.96
18201;BME280;9226;47.858;9.594;2022-09-19T09:25:57;95577.28;;;31.52;20.54
18201;BME280;9226;47.858;9.594;2022-09-19T09:31:15;95569.66;;;28.90;21.96
18201;BME280;9226;47.858;9.594;2022-09-19T09:34:02;95574.97;;;28.73;22.53
18201;BME280;9226;47.858;9.594;2022-09-19T09:36:34;95564.47;;;27.85;22.67
18201;BME280;9226;47.858;9.594;2022-09-19T09:39:07;95558.25;;;26.35;25.17
18201;BME280;9226;47.858;9.594;2022-09-19T09:41:44;95573.19;;;25.35;25.91
18201;BME280;9226;47.858;9.594;2022-09-19T09:49:16;95560.91;;;23.86;27.52
18201;BME280;9226;47.858;9.594;2022-09-19T09:51:49;95551.38;;;23.48;29.76
18201;BME280;9226;47.858;9.594;2022-09-19T10:00:19;95559.50;;;24.23;28.91
18201;BME280;9226;47.858;9.594;2022-09-19T10:06:11;95564.88;;;23.35;29.55
18201;BME280;9226;47.858;9.594;2022-09-19T10:11:52;95566.81;;;22.28;32.20
18201;BME280;9226;47.858;9.594;2022-09-19T10:14:23;95571.72;;;21.96;31.78
18201;BME280;9226;47.858;9.594;2022-09-19T10:16:52;95562.63;;;21.45;32.33
18201;BME280;9226;47.858;9.594;2022-09-19T10:19:33;95569.59;;;21.03;32.76
18201;BME280;9226;47.858;9.594;2022-09-19T10:22:01;95573.72;;;20.23;34.03
18201;BME280;9226;47.858;9.594;2022-09-19T10:24:52;95568.88;;;19.95;34.54
18201;BME280;9226;47.858;9.594;2022-09-19T10:27:25;95572.22;;;19.43;36.79
18201;BME280;9226;47.858;9.594;2022-09-19T10:30:21;95562.56;;;19.25;35.54
18201;BME280;9226;47.858;9.594;2022-09-19T10:32:50;95569.00;;;19.47;34.65
18201;BME280;9226;47.858;9.594;2022-09-19T10:35:32;95563.31;;;20.20;34.24
18201;BME280;9226;47.858;9.594;2022-09-19T10:38:14;95574.50;;;21.14;34.36
18201;BME280;9226;47.858;9.594;2022-09-19T10:43:30;95563.88;;;22.01;31.60
18201;BME280;9226;47.858;9.594;2022-09-19T10:46:06;95567.53;;;22.15;31.17
18201;BME280;9226;47.858;9.594;2022-09-19T10:48:34;95568.75;;;22.12;31.28
18201;BME280;9226;47.858;9.594;2022-09-19T10:51:05;95571.16;;;22.00;31.61
18201;BME280;9226;47.858;9.594;2022-09-19T10:53:34;95563.16;;;21.71;31.54
18201;BME280;9226;47.858;9.594;2022-09-19T10:56:04;95566.91;;;21.55;32.26
18201;BME280;9226;47.858;9.594;2022-09-19T10:58:36;95560.31;;;21.42;32.48
18201;BME280;9226;47.858;9.594;2022-09-19T11:01:20;95564.13;;;21.33;33.21
18201;BME280;9226;47.858;9.594;2022-09-19T11:06:27;95568.63;;;21.26;33.57
18201;BME280;9226;47.858;9.594;2022-09-19T11:08:54;95562.28;;;21.48;32.96
18201;BME280;9226;47.858;9.594;2022-09-19T11:11:30;95568.25;;;21.29;32.90
18201;BME280;9226;47.858;9.594;2022-09-19T11:14:32;95568.97;;;21.53;33.02
18201;BME280;9226;47.858;9.594;2022-09-19T11:23:17;95567.31;;;20.92;33.22
18201;BME280;9226;47.858;9.594;2022-09-19T11:25:52;95561.97;;;21.43;33.58
18201;BME280;9226;47.858;9.594;2022-09-19T11:31:51;95556.50;;;21.37;30.94
18201;BME280;9226;47.858;9.594;2022-09-19T11:37:39;95564.66;;;21.07;32.56
18201;BME280;9226;47.858;9.594;2022-09-19T11:43:26;95564.50;;;20.55;33.17
18201;BME280;9226;47.858;9.594;2022-09-19T12:10:14;95556.84;;;20.06;36.68
18201;BME280;9226;47.858;9.594;2022-09-19T12:12:42;95560.81;;;20.33;36.70
18201;BME280;9226;47.858;9.594;2022-09-19T12:15:19;95557.38;;;20.24;36.06
18201;BME280;9226;47.858;9.594;2022-09-19T12:18:21;95550.81;;;20.42;36.05
18201;BME280;9226;47.858;9.594;2022-09-19T12:20:48;95549.13;;;20.41;36.26
18201;BME280;9226;47.858;9.594;2022-09-19T12:25:59;95541.59;;;20.36;36.09
18201;BME280;9226;47.858;9.594;2022-09-19T12:28:33;95543.63;;;20.19;36.21
18201;BME280;9226;47.858;9.594;2022-09-19T12:31:01;95533.25;;;20.08;36.95
18201;BME280;9226;47.858;9.594;2022-09-19T12:33:36;95534.88;;;20.17;36.73
18201;BME280;9226;47.858;9.594;2022-09-19T12:38:46;95524.72;;;20.04;36.38
18201;BME280;9226;47.858;9.594;2022-09-19T12:43:49;95521.91;;;19.98;36.28
18201;BME280;9226;47.858;9.594;2022-09-19T12:49:17;95519.84;;;20.38;35.10
18201;BME280;9226;47.858;9.594;2022-09-19T12:51:59;95507.44;;;20.52;35.46
18201;BME280;9226;47.858;9.594;2022-09-19T12:54:48;95521.00;;;20.43;36.03
18201;BME280;9226;47.858;9.594;2022-09-19T12:57:31;95512.81;;;20.52;35.49
18201;BME280;9226;47.858;9.594;2022-09-19T13:00:03;95512.44;;;20.55;35.31
18201;BME280;9226;47.858;9.594;2022-09-19T13:02:32;95514.22;;;20.10;35.17
18201;BME280;9226;47.858;9.594;2022-09-19T13:05:05;95513.88;;;20.13;34.39
18201;BME280;9226;47.858;9.594;2022-09-19T13:10:26;95513.03;;;20.12;35.48
18201;BME280;9226;47.858;9.594;2022-09-19T13:13:09;95512.69;;;19.92;36.17
18201;BME280;9226;47.858;9.594;2022-09-19T13:15:46;95512.94;;;20.05;35.96
18201;BME280;9226;47.858;9.594;2022-09-19T13:18:15;95508.00;;;19.94;35.19
18201;BME280;9226;47.858;9.594;2022-09-19T13:21:00;95502.72;;;20.16;35.32
18201;BME280;9226;47.858;9.594;2022-09-19T13:23:50;95507.75;;;20.19;35.14
18201;BME280;9226;47.858;9.594;2022-09-19T13:26:20;95506.50;;;20.06;35.50
18201;BME280;9226;47.858;9.594;2022-09-19T13:28:53;95510.00;;;20.30;35.53
18201;BME280;9226;47.858;9.594;2022-09-19T13:31:24;95511.78;;;20.38;35.36
18201;BME280;9226;47.858;9.594;2022-09-19T13:33:52;95511.22;;;20.42;35.11
18201;BME280;9226;47.858;9.594;2022-09-19T13:38:53;95502.03;;;20.52;34.97
18201;BME280;9226;47.858;9.594;2022-09-19T13:41:23;95499.38;;;20.14;34.36
18201;BME280;9226;47.858;9.594;2022-09-19T13:46:45;95499.94;;;20.24;36.10
18201;BME280;9226;47.858;9.594;2022-09-19T13:49:25;95500.91;;;20.31;35.89
18201;BME280;9226;47.858;9.594;2022-09-19T13:52:00;95502.22;;;20.35;36.40
18201;BME280;9226;47.858;9.594;2022-09-19T13:54:31;95505.47;;;20.46;36.27
18201;BME280;9226;47.858;9.594;2022-09-19T13:59:59;95502.03;;;20.52;35.90
18201;BME280;9226;47.858;9.594;2022-09-19T14:02:38;95501.56;;;20.63;35.15
18201;BME280;9226;47.858;9.594;2022-09-19T14:05:12;95499.25;;;20.60;35.12
18201;BME280;9226;47.858;9.594;2022-09-19T14:07:53;95495.84;;;20.66;33.94
18201;BME280;9226;47.858;9.594;2022-09-19T14:13:04;95488.63;;;20.14;34.29
18201;BME280;9226;47.858;9.594;2022-09-19T14:15:48;95492.94;;;20.00;33.85
18201;BME280;9226;47.858;9.594;2022-09-19T14:24:28;95495.56;;;19.39;35.51
18201;BME280;9226;47.858;9.594;2022-09-19T14:32:31;95491.34;;;19.13;35.78
18201;BME280;9226;47.858;9.594;2022-09-19T14:35:24;95489.75;;;18.95;36.49
18201;BME280;9226;47.858;9.594;2022-09-19T14:41:04;95483.22;;;18.42;37.69
18201;BME280;9226;47.858;9.594;2022-09-19T14:46:37;95488.94;;;18.39;38.56
18201;BME280;9226;47.858;9.594;2022-09-19T14:49:39;95496.22;;;18.22;38.91
18201;BME280;9226;47.858;9.594;2022-09-19T14:52:17;95499.06;;;18.20;38.56
18201;BME280;9226;47.858;9.594;2022-09-19T14:55:03;95506.44;;;18.10;40.05
18201;BME280;9226;47.858;9.594;2022-09-19T14:57:44;95495.88;;;18.08;40.47
18201;BME280;9226;47.858;9.594;2022-09-19T15:00:21;95500.41;;;18.16;40.41
18201;BME280;9226;47.858;9.594;2022-09-19T15:02:47;95500.75;;;18.13;39.77
18201;BME280;9226;47.858;9.594;2022-09-19T15:07:41;95483.97;;;18.11;40.70
18201;BME280;9226;47.858;9.594;2022-09-19T15:12:52;95484.28;;;18.16;40.03
18201;BME280;9226;47.858;9.594;2022-09-19T15:15:18;95488.84;;;18.16;40.78
18201;BME280;9226;47.858;9.594;2022-09-19T15:17:50;95493.69;;;18.12;40.78
18201;BME280;9226;47.858;9.594;2022-09-19T15:20:18;95491.00;;;18.20;41.24
18201;BME280;9226;47.858;9.594;2022-09-19T15:22:57;95495.19;;;18.23;41.01
18201;BME280;9226;47.858;9.594;2022-09-19T15:25:36;95487.97;;;18.15;41.65
18201;BME280;9226;47.858;9.594;2022-09-19T15:28:22;95489.84;;;18.15;40.77
18201;BME280;9226;47.858;9.594;2022-09-19T15:30:51;95489.03;;;18.06;41.41
18201;BME280;9226;47.858;9.594;2022-09-19T15:33:22;95492.72;;;18.05;41.10
18201;BME280;9226;47.858;9.594;2022-09-19T15:35:50;95490.38;;;18.02;40.83
18201;BME280;9226;47.858;9.594;2022-09-19T15:38:34;95496.09;;;17.90;41.26
18201;BME280;9226;47.858;9.594;2022-09-19T15:41:04;95492.72;;;17.88;41.55
18201;BME280;9226;47.858;9.594;2022-09-19T15:43:32;95498.72;;;17.66;43.12
18201;BME280;9226;47.858;9.594;2022-09-19T15:46:02;95505.13;;;17.73;42.70
18201;BME280;9226;47.858;9.594;2022-09-19T15:48:33;95506.59;;;17.59;43.92
18201;BME280;9226;47.858;9.594;2022-09-19T15:51:27;95496.03;;;17.58;44.25
18201;BME280;9226;47.858;9.594;2022-09-19T15:53:54;95509.28;;;17.59;43.45
18201;BME280;9226;47.858;9.594;2022-09-19T15:56:23;95502.41;;;17.57;43.50
18201;BME280;9226;47.858;9.594;2022-09-19T15:58:57;95504.44;;;17.46;43.95
18201;BME280;9226;47.858;9.594;2022-09-19T16:01:29;95498.34;;;17.36;43.51
18201;BME280;9226;47.858;9.594;2022-09-19T16:04:10;95502.72;;;17.29;44.13
18201;BME280;9226;47.858;9.594;2022-09-19T16:06:39;95505.72;;;17.26;44.16
18201;BME280;9226;47.858;9.594;2022-09-19T16:12:02;95510.88;;;17.11;44.00
18201;BME280;9226;47.858;9.594;2022-09-19T16:14:37;95503.84;;;17.02;44.74
18201;BME280;9226;47.858;9.594;2022-09-19T16:17:13;95509.53;;;16.98;44.92
18201;BME280;9226;47.858;9.594;2022-09-19T16:19:47;95511.66;;;16.95;44.23
18201;BME280;9226;47.858;9.594;2022-09-19T16:22:15;95509.97;;;16.86;44.74
18201;BME280;9226;47.858;9.594;2022-09-19T16:24:49;95517.44;;;16.82;44.83
18201;BME280;9226;47.858;9.594;2022-09-19T16:27:21;95510.06;;;16.76;45.25
18201;BME280;9226;47.858;9.594;2022-09-19T16:29:50;95511.41;;;16.72;45.48